createdAt,value
2023-01-05T00:00:10.460Z,100114.69
2023-01-05T00:02:37.668Z,100120.06
2023-01-05T00:05:04.149Z,100117.38
2023-01-05T00:07:30.509Z,100123.81
2023-01-05T00:09:57.011Z,100115.75
2023-01-05T00:12:23.358Z,100105.22
2023-01-05T00:14:49.943Z,100099.84
2023-01-05T00:17:16.575Z,100105.22
2023-01-05T00:19:43.178Z,100109.78
2023-01-05T00:22:09.551Z,100117.88
2023-01-05T00:24:35.927Z,100116.22
2023-01-05T00:27:02.454Z,100120.78
2023-01-05T00:29:28.793Z,100115.66
2023-01-05T00:31:55.479Z,100111.91
2023-01-05T00:34:22.513Z,100126.41
2023-01-05T00:36:48.923Z,100118.59
2023-01-05T00:39:15.486Z,100119.41
2023-01-05T00:41:42.096Z,100124.78
2023-01-05T00:44:08.471Z,100127.13
2023-01-05T00:46:35.075Z,100129.81
2023-01-05T00:49:01.865Z,100131.47
2023-01-05T00:51:28.914Z,100128.78
2023-01-05T00:53:56.173Z,100130.88
2023-01-05T00:56:22.548Z,100124.69
2023-01-05T00:58:49.212Z,100132.75
2023-01-05T01:01:15.733Z,100129.28
2023-01-05T01:03:42.805Z,100138.41
2023-01-05T01:06:09.204Z,100134.88
2023-01-05T01:08:35.809Z,100142.13
2023-01-05T01:11:02.315Z,100134.88
2023-01-05T01:13:29.236Z,100134.88
2023-01-05T01:15:55.665Z,100132.44
2023-01-05T01:18:22.332Z,100142.13
2023-01-05T01:20:48.928Z,100153.94
2023-01-05T01:23:15.356Z,100150.47
2023-01-05T01:25:42.647Z,100157.69
2023-01-05T01:28:09.140Z,100158.75
2023-01-05T01:30:36.239Z,100155.50
2023-01-05T01:33:02.999Z,100157.38
2023-01-05T01:35:29.445Z,100155.72
2023-01-05T01:37:56.030Z,100162.75
2023-01-05T01:40:22.741Z,100170.81
2023-01-05T01:42:49.182Z,100151.19
2023-01-05T01:45:15.742Z,100147.66
2023-01-05T01:47:42.122Z,100147.94
2023-01-05T01:50:08.577Z,100150.63
2023-01-05T01:52:35.122Z,100152.47
2023-01-05T01:55:01.566Z,100148.72
2023-01-05T01:57:27.885Z,100140.91
2023-01-05T01:59:54.224Z,100140.09
2023-01-05T02:02:20.818Z,100147.34
2023-01-05T02:04:47.636Z,100139.28
2023-01-05T02:07:14.692Z,100143.03
2023-01-05T02:09:40.986Z,100140.34
2023-01-05T02:12:07.543Z,100136.84
2023-01-05T02:14:33.851Z,100136.03
2023-01-05T02:17:00.272Z,100129.84
2023-01-05T02:19:27.132Z,100137.06
2023-01-05T02:21:53.510Z,100136.28
2023-01-05T02:24:19.908Z,100130.06
2023-01-05T02:26:46.339Z,100137.31
2023-01-05T02:29:12.951Z,100135.44
2023-01-05T02:31:39.428Z,100131.94
2023-01-05T02:34:05.937Z,100130.31
2023-01-05T02:36:32.343Z,100117.69
2023-01-05T02:38:58.792Z,100115.00
2023-01-05T02:41:25.105Z,100109.88
2023-01-05T02:43:51.465Z,100119.00
2023-01-05T02:46:17.943Z,100114.44
2023-01-05T02:48:44.284Z,100108.00
2023-01-05T02:51:10.832Z,100114.44
2023-01-05T02:53:37.137Z,100118.19
2023-01-05T02:56:03.538Z,100113.03
2023-01-05T02:58:29.900Z,100123.56
2023-01-05T03:00:56.522Z,100114.69
2023-01-05T03:03:23.392Z,100124.63
2023-01-05T03:05:50.010Z,100114.09
2023-01-05T03:08:16.509Z,100117.03
2023-01-05T03:10:42.888Z,100110.59
2023-01-05T03:13:09.787Z,100116.78
2023-01-05T03:15:37.679Z,100134.78
2023-01-05T03:18:04.414Z,100129.41
2023-01-05T03:20:30.785Z,100123.22
2023-01-05T03:22:57.148Z,100118.94
2023-01-05T03:25:23.846Z,100120.78
2023-01-05T03:27:50.282Z,100115.41
2023-01-05T03:30:16.629Z,100121.84
2023-01-05T03:32:43.040Z,100127.22
2023-01-05T03:35:09.769Z,100127.22
2023-01-05T03:37:36.296Z,100130.94
2023-01-05T03:40:02.948Z,100132.84
2023-01-05T03:42:29.361Z,100121.03
2023-01-05T03:44:56.192Z,100130.16
2023-01-05T03:47:23.395Z,100141.69
2023-01-05T03:49:49.741Z,100133.63
2023-01-05T03:52:16.231Z,100146.53
2023-01-05T03:54:43.212Z,100135.75
2023-01-05T03:57:09.515Z,100139.53
2023-01-05T03:59:36.514Z,100125.03
2023-01-05T04:02:03.017Z,100135.75
2023-01-05T04:04:29.435Z,100138.69
2023-01-05T04:06:55.837Z,100139.53
2023-01-05T04:09:22.452Z,100138.13
2023-01-05T04:11:48.840Z,100129.25
2023-01-05T04:14:15.195Z,100132.75
2023-01-05T04:16:41.688Z,100136.47
2023-01-05T04:19:08.258Z,100131.94
2023-01-05T04:21:35.504Z,100141.06
2023-01-05T04:24:01.860Z,100138.38
2023-01-05T04:26:28.558Z,100136.47
2023-01-05T04:28:55.032Z,100135.69
2023-01-05T04:31:22.279Z,100143.75
2023-01-05T04:33:48.844Z,100141.28
2023-01-05T04:36:15.248Z,100144.81
2023-01-05T04:38:41.699Z,100152.28
2023-01-05T04:41:08.298Z,100147.72
2023-01-05T04:43:34.779Z,100146.91
2023-01-05T04:46:01.386Z,100150.66
2023-01-05T04:48:28.037Z,100156.03
2023-01-05T04:50:54.557Z,100156.03
2023-01-05T04:53:21.200Z,100158.72
2023-01-05T04:55:47.654Z,100162.47
2023-01-05T04:58:14.487Z,100152.53
2023-01-05T05:00:40.787Z,100154.41
2023-01-05T05:03:07.920Z,100165.16
2023-01-05T05:05:34.976Z,100174.25
2023-01-05T05:08:01.713Z,100165.63
2023-01-05T05:10:28.368Z,100168.31
2023-01-05T05:12:54.765Z,100170.78
2023-01-05T05:15:21.256Z,100161.09
2023-01-05T05:17:47.582Z,100176.38
2023-01-05T05:20:14.108Z,100165.63
2023-01-05T05:22:40.561Z,100172.88
2023-01-05T05:25:07.099Z,100170.41
2023-01-05T05:27:33.823Z,100180.13
2023-01-05T05:30:00.291Z,100170.69
2023-01-05T05:32:27.086Z,100178.47
2023-01-05T05:34:53.587Z,100185.75
2023-01-05T05:37:20.088Z,100182.22
2023-01-05T05:39:46.536Z,100188.66
2023-01-05T05:42:13.480Z,100177.91
2023-01-05T05:44:40.186Z,100177.91
2023-01-05T05:47:06.854Z,100182.47
2023-01-05T05:49:33.811Z,100183.53
2023-01-05T05:52:00.316Z,100183.28
2023-01-05T05:54:26.610Z,100182.47
2023-01-05T05:56:53.715Z,100184.34
2023-01-05T05:59:20.118Z,100194.28
2023-01-05T06:01:46.761Z,100190.78
2023-01-05T06:04:13.207Z,100181.66
2023-01-05T06:06:39.787Z,100180.03
2023-01-05T06:09:06.391Z,100184.34
2023-01-05T06:11:33.650Z,100201.53
2023-01-05T06:14:00.624Z,100206.31
2023-01-05T06:16:27.355Z,100197.19
2023-01-05T06:18:53.903Z,100202.00
2023-01-05T06:21:20.464Z,100197.94
2023-01-05T06:23:47.546Z,100200.84
2023-01-05T06:26:13.931Z,100200.84
2023-01-05T06:28:40.416Z,100209.69
2023-01-05T06:31:07.384Z,100205.16
2023-01-05T06:33:33.798Z,100207.03
2023-01-05T06:36:00.301Z,100199.78
2023-01-05T06:38:26.732Z,100205.16
2023-01-05T06:40:53.676Z,100201.66
2023-01-05T06:43:20.116Z,100203.53
2023-01-05T06:45:46.830Z,100216.97
2023-01-05T06:48:13.288Z,100214.28
2023-01-05T06:50:39.592Z,100211.59
2023-01-05T06:53:05.927Z,100211.59
2023-01-05T06:55:32.618Z,100226.88
2023-01-05T06:58:01.247Z,100208.09
2023-01-05T07:00:28.248Z,100220.72
2023-01-05T07:02:54.938Z,100240.56
2023-01-05T07:05:21.838Z,100238.69
2023-01-05T07:07:48.195Z,100252.13
2023-01-05T07:10:14.786Z,100245.34
2023-01-05T07:12:41.475Z,100253.19
2023-01-05T07:15:08.144Z,100265.78
2023-01-05T07:17:35.602Z,100270.09
2023-01-05T07:20:02.043Z,100269.31
2023-01-05T07:22:28.381Z,100279.22
2023-01-05T07:24:55.516Z,100259.63
2023-01-05T07:27:21.875Z,100273.84
2023-01-05T07:29:48.862Z,100272.22
2023-01-05T07:32:15.268Z,100286.72
2023-01-05T07:34:41.805Z,100293.72
2023-01-05T07:37:08.437Z,100281.34
2023-01-05T07:39:35.068Z,100278.66
2023-01-05T07:42:01.679Z,100270.59
2023-01-05T07:44:28.217Z,100267.91
2023-01-05T07:46:55.302Z,100293.72
2023-01-05T07:49:21.843Z,100293.72
2023-01-05T07:51:48.290Z,100293.13
2023-01-05T07:54:15.308Z,100291.25
2023-01-05T07:56:41.680Z,100297.47
2023-01-05T07:59:08.282Z,100302.84
2023-01-05T08:01:34.747Z,100305.28
2023-01-05T08:04:01.393Z,100315.19
2023-01-05T08:06:28.139Z,100312.50
2023-01-05T08:08:55.099Z,100310.41
2023-01-05T08:11:21.431Z,100320.56
2023-01-05T08:13:47.770Z,100344.75
2023-01-05T08:16:14.585Z,100342.91
2023-01-05T08:18:40.973Z,100349.06
2023-01-05T08:21:07.251Z,100330.50
2023-01-05T08:23:33.971Z,100333.41
2023-01-05T08:26:00.266Z,100340.66
2023-01-05T08:28:33.229Z,100340.44
2023-01-05T08:31:02.346Z,100334.47
2023-01-05T08:33:29.015Z,100340.06
2023-01-05T08:35:55.416Z,100352.69
2023-01-05T08:38:21.885Z,100358.63
2023-01-05T08:40:48.263Z,100353.50
2023-01-05T08:43:14.858Z,100372.31
2023-01-05T08:45:41.568Z,100366.13
2023-01-05T08:48:08.233Z,100377.94
2023-01-05T08:50:34.529Z,100379.19
2023-01-05T08:53:01.424Z,100398.00
2023-01-05T08:55:27.762Z,100398.00
2023-01-05T08:57:54.688Z,100404.44
2023-01-05T09:00:21.618Z,100409.00
2023-01-05T09:02:48.353Z,100416.47
2023-01-05T09:05:15.131Z,100414.59
2023-01-05T09:07:41.797Z,100406.78
2023-01-05T09:10:08.459Z,100411.31
2023-01-05T09:12:34.894Z,100420.44
2023-01-05T09:15:01.381Z,100418.56
2023-01-05T09:17:27.916Z,100430.13
2023-01-05T09:19:54.973Z,100418.81
2023-01-05T09:22:21.317Z,100427.91
2023-01-05T09:24:48.027Z,100427.91
2023-01-05T09:27:14.766Z,100437.81
2023-01-05T09:29:41.090Z,100441.56
2023-01-05T09:32:07.905Z,100449.13
2023-01-05T09:34:34.663Z,100445.66
2023-01-05T09:37:01.321Z,100452.09
2023-01-05T09:39:28.137Z,100453.94
2023-01-05T09:41:54.459Z,100455.78
2023-01-05T09:44:21.026Z,100457.69
2023-01-05T09:46:47.436Z,100470.06
2023-01-05T09:49:14.285Z,100471.69
2023-01-05T09:51:40.682Z,100470.88
2023-01-05T09:54:07.313Z,100470.28
2023-01-05T09:57:08.051Z,100470.50
2023-01-05T09:59:20.265Z,100480.19
2023-01-05T10:01:47.387Z,100466.75
2023-01-05T10:04:14.592Z,100474.59
2023-01-05T10:06:41.043Z,100470.88
2023-01-05T10:09:08.124Z,100463.84
2023-01-05T10:11:35.111Z,100474.59
2023-01-05T10:14:01.935Z,100468.66
2023-01-05T10:16:29.783Z,100471.13
2023-01-05T10:18:56.973Z,100472.97
2023-01-05T10:21:23.671Z,100458.72
2023-01-05T10:23:50.219Z,100464.06
2023-01-05T10:26:17.262Z,100466.75
2023-01-05T10:28:44.299Z,100477.50
2023-01-05T10:31:10.736Z,100467.03
2023-01-05T10:33:40.565Z,100480.19
2023-01-05T10:36:12.277Z,100473.41
2023-01-05T10:38:39.703Z,100482.31
2023-01-05T10:41:06.307Z,100490.38
2023-01-05T10:43:33.336Z,100482.06
2023-01-05T10:46:29.793Z,100485.56
2023-01-05T10:48:47.016Z,100504.63
2023-01-05T10:51:13.729Z,100502.97
2023-01-05T10:53:40.141Z,100514.31
2023-01-05T10:56:06.827Z,100486.63
2023-01-05T10:58:33.970Z,100492.00
2023-01-05T11:01:00.393Z,100501.69
2023-01-05T11:03:55.578Z,100501.09
2023-01-05T11:06:13.810Z,100508.09
2023-01-05T11:08:40.463Z,100511.84
2023-01-05T11:11:07.353Z,100512.91
2023-01-05T11:13:34.227Z,100510.22
2023-01-05T11:16:00.552Z,100517.44
2023-01-05T11:18:28.001Z,100519.28
2023-01-05T11:20:54.937Z,100533.56
2023-01-05T11:23:21.319Z,100538.69
2023-01-05T11:25:47.685Z,100526.31
2023-01-05T11:28:14.438Z,100532.72
2023-01-05T11:30:41.098Z,100540.78
2023-01-05T11:33:12.616Z,100546.97
2023-01-05T11:35:41.231Z,100535.66
2023-01-05T11:38:07.636Z,100537.28
2023-01-05T11:40:34.019Z,100539.16
2023-01-05T11:43:00.599Z,100559.84
2023-01-05T11:45:27.911Z,100566.84
2023-01-05T11:47:54.397Z,100564.38
2023-01-05T11:50:20.875Z,100571.38
2023-01-05T11:52:47.408Z,100560.84
2023-01-05T11:55:14.283Z,100569.75
2023-01-05T11:57:41.151Z,100575.13
2023-01-05T12:00:07.755Z,100568.13
2023-01-05T12:02:34.163Z,100576.16
2023-01-05T12:05:00.761Z,100574.53
2023-01-05T12:07:27.259Z,100575.34
2023-01-05T12:09:55.339Z,100575.34
2023-01-05T12:12:22.200Z,100572.66
2023-01-05T12:14:48.650Z,100583.63
2023-01-05T12:17:15.514Z,100584.66
2023-01-05T12:19:42.003Z,100597.88
2023-01-05T12:22:08.337Z,100573.94
2023-01-05T12:24:35.050Z,100592.72
2023-01-05T12:27:01.684Z,100589.22
2023-01-05T12:31:06.430Z,100611.53
2023-01-05T12:35:01.379Z,100626.59
2023-01-05T12:37:28.864Z,100633.84
2023-01-05T12:39:55.399Z,100627.63
2023-01-05T12:42:21.965Z,100632.16
2023-01-05T12:44:48.494Z,100639.44
2023-01-05T12:47:15.578Z,100640.22
2023-01-05T12:49:42.026Z,100647.47
2023-01-05T12:52:08.372Z,100652.84
2023-01-05T12:54:35.334Z,100661.94
2023-01-05T12:57:01.799Z,100645.81
2023-01-05T12:59:28.166Z,100662.72
2023-01-05T13:01:54.541Z,100665.41
2023-01-05T13:04:21.143Z,100661.94
2023-01-05T13:06:47.611Z,100666.47
2023-01-05T13:09:14.270Z,100667.31
2023-01-05T13:11:41.144Z,100672.88
2023-01-05T13:14:07.523Z,100678.03
2023-01-05T13:16:33.875Z,100682.56
2023-01-05T13:19:00.310Z,100680.94
2023-01-05T13:21:26.935Z,100661.94
2023-01-05T13:23:53.454Z,100675.34
2023-01-05T13:26:19.755Z,100682.56
2023-01-05T13:28:46.071Z,100687.13
2023-01-05T13:31:12.539Z,100694.16
2023-01-05T13:33:39.232Z,100685.50
2023-01-05T13:36:05.556Z,100685.50
2023-01-05T13:38:31.852Z,100702.44
2023-01-05T13:40:58.296Z,100699.13
2023-01-05T13:43:24.984Z,100699.97
2023-01-05T13:45:52.794Z,100710.69
2023-01-05T13:48:25.576Z,100718.97
2023-01-05T13:51:00.759Z,100707.41
2023-01-05T13:53:27.835Z,100727.03
2023-01-05T13:55:54.790Z,100728.88
2023-01-05T13:58:21.211Z,100739.63
2023-01-05T14:00:47.599Z,100728.88
2023-01-05T14:03:14.381Z,100741.50
2023-01-05T14:05:40.666Z,100740.69
2023-01-05T14:08:07.378Z,100739.63
2023-01-05T14:10:33.912Z,100747.69
2023-01-05T14:13:00.500Z,100752.25
2023-01-05T14:15:27.346Z,100756.78
2023-01-05T14:17:53.683Z,100763.22
2023-01-05T14:20:20.048Z,100771.84
2023-01-05T14:22:46.594Z,100771.03
2023-01-05T14:25:13.195Z,100778.25
2023-01-05T14:27:40.033Z,100787.94
2023-01-05T14:30:06.364Z,100798.94
2023-01-05T14:32:33.121Z,100796.25
2023-01-05T14:34:59.702Z,100800.78
2023-01-05T14:37:26.127Z,100822.28
2023-01-05T14:39:53.316Z,100833.00
2023-01-05T14:42:20.252Z,100833.00
2023-01-05T14:44:47.025Z,100841.06
2023-01-05T14:47:13.925Z,100857.19
2023-01-05T14:49:40.588Z,100850.19
2023-01-05T14:52:06.874Z,100860.69
2023-01-05T14:54:33.559Z,100856.56
2023-01-05T14:57:00.698Z,100858.22
2023-01-05T14:59:28.628Z,100852.84
2023-01-05T15:01:54.942Z,100869.97
2023-01-05T15:04:21.876Z,100877.03
2023-01-05T15:06:48.217Z,100881.78
2023-01-05T15:09:15.065Z,100899.53
2023-01-05T15:11:41.379Z,100886.34
2023-01-05T15:14:08.034Z,100897.09
2023-01-05T15:16:34.370Z,100901.63
2023-01-05T15:19:00.715Z,100918.56
2023-01-05T15:21:27.419Z,100908.63
2023-01-05T15:23:53.827Z,100913.19
2023-01-05T15:26:20.592Z,100925.78
2023-01-05T15:28:47.211Z,100925.78
2023-01-05T15:31:13.624Z,100936.53
2023-01-05T15:33:39.909Z,100949.09
2023-01-05T15:36:06.638Z,100957.16
2023-01-05T15:38:34.320Z,100962.53
2023-01-05T15:41:03.245Z,100972.47
2023-01-05T15:43:29.693Z,100969.78
2023-01-05T15:45:56.154Z,100974.31
2023-01-05T15:48:22.514Z,100978.88
2023-01-05T15:50:49.510Z,100984.25
2023-01-05T15:53:16.159Z,100983.41
2023-01-05T15:55:42.553Z,100983.41
2023-01-05T15:58:09.100Z,100991.47
2023-01-05T16:00:35.424Z,101000.38
2023-01-05T16:03:01.980Z,101004.91
2023-01-05T16:05:28.730Z,101014.81
2023-01-05T16:07:55.247Z,101015.63
2023-01-05T16:10:21.868Z,101015.00
2023-01-05T16:12:48.349Z,101015.84
2023-01-05T16:15:14.989Z,101027.63
2023-01-05T16:17:41.618Z,101016.91
2023-01-05T16:20:08.068Z,101031.13
2023-01-05T16:22:34.591Z,101028.44
2023-01-05T16:25:01.065Z,101033.81
2023-01-05T16:27:27.575Z,101044.53
2023-01-05T16:29:54.008Z,101049.09
2023-01-05T16:32:20.389Z,101049.91
2023-01-05T16:34:47.394Z,101059.84
2023-01-05T16:37:14.000Z,101060.91
2023-01-05T16:39:40.347Z,101077.00
2023-01-05T16:42:06.981Z,101077.00
2023-01-05T16:44:33.376Z,101086.91
2023-01-05T16:46:59.897Z,101091.44
2023-01-05T16:49:26.453Z,101098.47
2023-01-05T16:51:53.406Z,101101.38
2023-01-05T16:54:22.117Z,101112.13
2023-01-05T16:56:49.128Z,101119.34
2023-01-05T16:59:15.392Z,101117.69
2023-01-05T17:01:41.773Z,101117.69
2023-01-05T17:04:08.111Z,101127.59
2023-01-05T17:06:34.975Z,101113.13
2023-01-05T17:09:01.521Z,101127.59
2023-01-05T17:11:28.376Z,101125.94
2023-01-05T17:13:54.853Z,101120.59
2023-01-05T17:16:21.672Z,101138.34
2023-01-05T17:18:48.299Z,101139.16
2023-01-05T17:21:14.671Z,101140.22
2023-01-05T17:23:41.762Z,101144.53
2023-01-05T17:26:08.195Z,101151.75
2023-01-05T17:28:35.126Z,101149.06
2023-01-05T17:31:01.513Z,101148.25
2023-01-05T17:33:28.330Z,101149.28
2023-01-05T17:35:55.463Z,101161.91
2023-01-05T17:38:21.849Z,101168.06
2023-01-05T17:40:48.340Z,101174.47
2023-01-05T17:43:14.828Z,101177.16
2023-01-05T17:45:41.165Z,101174.47
2023-01-05T17:48:08.146Z,101186.06
2023-01-05T17:50:34.472Z,101191.22
2023-01-05T17:53:00.991Z,101182.53
2023-01-05T17:55:28.820Z,101182.94
2023-01-05T17:57:55.411Z,101194.16
2023-01-05T18:00:22.241Z,101192.94
2023-01-05T18:02:49.042Z,101199.75
2023-01-05T18:05:15.909Z,101198.31
2023-01-05T18:07:42.564Z,101202.63
2023-01-05T18:10:09.670Z,101205.25
2023-01-05T18:12:36.081Z,101195.53
2023-01-05T18:15:02.639Z,101201.69
2023-01-05T18:17:29.464Z,101199.16
2023-01-05T18:19:56.231Z,101210.47
2023-01-05T18:22:23.488Z,101213.38
2023-01-05T18:24:50.008Z,101218.28
2023-01-05T18:27:16.542Z,101229.84
2023-01-05T18:29:43.881Z,101232.28
2023-01-05T18:32:10.284Z,101227.47
2023-01-05T18:34:36.716Z,101237.38
2023-01-05T18:37:06.359Z,101239.19
2023-01-05T18:39:37.259Z,101243.47
2023-01-05T18:42:04.279Z,101248.00
2023-01-05T18:44:31.242Z,101247.13
2023-01-05T18:46:57.797Z,101249.38
2023-01-05T18:49:24.417Z,101246.03
2023-01-05T18:51:50.849Z,101254.88
2023-01-05T18:54:17.233Z,101255.91
2023-01-05T18:56:43.593Z,101259.81
2023-01-05T18:59:10.342Z,101268.06
2023-01-05T19:01:36.989Z,101273.38
2023-01-05T19:04:03.464Z,101271.06
2023-01-05T19:06:29.877Z,101276.03
2023-01-05T19:08:56.683Z,101277.03
2023-01-05T19:11:23.363Z,101285.69
2023-01-05T19:13:49.654Z,101293.13
2023-01-05T19:16:16.265Z,101287.91
2023-01-05T19:18:43.088Z,101292.84
2023-01-05T19:21:09.425Z,101294.63
2023-01-05T19:23:36.429Z,101290.69
2023-01-05T19:26:03.444Z,101292.72
2023-01-05T19:28:30.016Z,101297.06
2023-01-05T19:30:56.533Z,101293.94
2023-01-05T19:33:23.273Z,101299.25
2023-01-05T19:35:49.671Z,101295.28
2023-01-05T19:38:16.444Z,101301.44
2023-01-05T19:40:43.121Z,101307.44
2023-01-05T19:43:09.808Z,101316.06
2023-01-05T19:45:36.860Z,101318.53
2023-01-05T19:48:03.396Z,101329.69
2023-01-05T19:50:30.267Z,101320.94
2023-01-05T19:52:57.060Z,101328.38
2023-01-05T19:55:23.898Z,101328.75
2023-01-05T19:57:50.554Z,101329.13
2023-01-05T20:00:17.225Z,101339.00
2023-01-05T20:02:43.840Z,101348.28
2023-01-05T20:05:10.207Z,101350.84
2023-01-05T20:07:37.392Z,101348.91
2023-01-05T20:10:04.549Z,101357.00
2023-01-05T20:12:30.934Z,101353.25
2023-01-05T20:14:58.128Z,101362.53
2023-01-05T20:17:25.105Z,101372.63
2023-01-05T20:19:51.832Z,101372.81
2023-01-05T20:22:18.951Z,101380.41
2023-01-05T20:24:45.578Z,101388.69
2023-01-05T20:27:12.161Z,101383.44
2023-01-05T20:29:38.538Z,101384.84
2023-01-05T20:32:05.337Z,101385.81
2023-01-05T20:34:31.697Z,101393.09
2023-01-05T20:36:58.791Z,101388.53
2023-01-05T20:39:25.744Z,101398.34
2023-01-05T20:41:52.464Z,101402.09
2023-01-05T20:44:19.286Z,101405.22
2023-01-05T20:46:46.009Z,101409.19
2023-01-05T20:49:13.068Z,101413.19
2023-01-05T20:51:39.954Z,101412.78
2023-01-05T20:54:06.861Z,101415.34
2023-01-05T20:56:33.411Z,101425.97
2023-01-05T20:59:00.080Z,101421.47
2023-01-05T21:01:27.020Z,101426.47
2023-01-05T21:03:53.350Z,101422.56
2023-01-05T21:06:20.265Z,101428.44
2023-01-05T21:08:47.283Z,101431.34
2023-01-05T21:11:14.343Z,101443.41
2023-01-05T21:13:41.894Z,101450.88
2023-01-05T21:16:08.598Z,101453.19
2023-01-05T21:18:35.947Z,101457.75
2023-01-05T21:21:02.499Z,101462.75
2023-01-05T21:23:29.426Z,101457.81
2023-01-05T21:26:07.083Z,101465.09
2023-01-05T21:28:34.208Z,101465.50
2023-01-05T21:31:00.599Z,101473.81
2023-01-05T21:33:27.278Z,101475.91
2023-01-05T21:35:53.658Z,101474.47
2023-01-05T21:38:21.007Z,101477.41
2023-01-05T21:40:51.743Z,101484.03
2023-01-05T21:43:18.558Z,101477.00
2023-01-05T21:45:45.130Z,101474.50
2023-01-05T21:48:11.668Z,101473.72
2023-01-05T21:50:38.982Z,101474.97
2023-01-05T21:53:05.362Z,101482.22
2023-01-05T21:55:32.068Z,101481.59
2023-01-05T21:57:58.462Z,101479.13
2023-01-05T22:00:24.959Z,101487.19
2023-01-05T22:02:52.331Z,101484.72
2023-01-05T22:05:18.860Z,101489.28
2023-01-05T22:07:45.928Z,101492.63
2023-01-05T22:10:13.154Z,101496.34
2023-01-05T22:12:40.099Z,101499.28
2023-01-05T22:15:06.547Z,101500.56
2023-01-05T22:17:32.950Z,101497.22
2023-01-05T22:19:59.501Z,101494.97
2023-01-05T22:22:26.002Z,101503.25
2023-01-05T22:24:52.522Z,101503.50
2023-01-05T22:27:19.503Z,101499.13
2023-01-05T22:29:45.984Z,101499.38
2023-01-05T22:32:12.424Z,101501.66
2023-01-05T22:34:39.476Z,101497.53
2023-01-05T22:37:06.119Z,101510.19
2023-01-05T22:39:32.610Z,101505.22
2023-01-05T22:41:59.753Z,101515.38
2023-01-05T22:44:26.923Z,101509.38
2023-01-05T22:46:53.768Z,101522.22
2023-01-05T22:49:20.838Z,101526.16
2023-01-05T22:51:48.039Z,101519.16
2023-01-05T22:54:14.872Z,101514.19
2023-01-05T22:56:41.362Z,101509.00
2023-01-05T22:59:08.026Z,101509.25
2023-01-05T23:01:34.625Z,101505.94
2023-01-05T23:04:01.677Z,101504.50
2023-01-05T23:06:28.064Z,101502.84
2023-01-05T23:08:54.702Z,101521.91
2023-01-05T23:11:21.119Z,101528.34
2023-01-05T23:13:47.979Z,101523.16
2023-01-05T23:16:14.371Z,101527.09
2023-01-05T23:18:40.983Z,101532.91
2023-01-05T23:21:07.563Z,101526.69
2023-01-05T23:23:33.875Z,101515.31
2023-01-05T23:26:00.337Z,101518.22
2023-01-05T23:28:26.863Z,101530.88
2023-01-05T23:30:53.462Z,101521.31
2023-01-05T23:33:19.974Z,101518.63
2023-01-05T23:35:46.339Z,101513.72
2023-01-05T23:38:13.070Z,101514.97
2023-01-05T23:40:39.479Z,101507.69
2023-01-05T23:43:06.041Z,101517.84
2023-01-05T23:45:32.674Z,101524.88
2023-01-05T23:47:58.965Z,101525.31
2023-01-05T23:50:25.494Z,101529.03
2023-01-05T23:52:52.290Z,101522.81
2023-01-05T23:55:18.700Z,101523.06
2023-01-05T23:57:45.355Z,101524.06
